Time;durP1;ratioP1;P1;durP2;ratioP2;P2;SDS_P1;SDS_P2;PMS_P1;PMS_P2;Temp;Humidity;BMP_temperature;BMP_pressure;BME280_temperature;BME280_humidity;BME280_pressure;Samples;Min_cycle;Max_cycle;Signal;HPM_P1;HPM_P2
2022/08/10 00:00:37;;;;;;;;;10.33;9.67;;;;;24.29;51.92;99379.69;4951524;28;102460;-56
2022/08/10 00:03:06;;;;;;;;;11.00;10.00;;;;;24.29;51.99;99391.59;4951384;28;102656;-56
2022/08/10 00:05:33;;;;;;;;;14.00;9.00;;;;;24.29;51.75;99386.06;4941112;28;104309;-56
2022/08/10 00:08:17;;;;;;;;;7.33;7.00;;;;;24.29;51.85;99380.53;4956245;28;102369;-56
2022/08/10 00:10:53;;;;;;;;;8.33;8.00;;;;;24.29;52.17;99379.69;4944153;28;102465;-56
2022/08/10 00:13:21;;;;;;;;;12.00;9.00;;;;;24.29;51.97;99380.53;4948617;28;102136;-56
2022/08/10 00:15:48;;;;;;;;;11.00;9.00;;;;;24.29;51.80;99379.69;4950071;28;104213;-56
2022/08/10 00:18:24;;;;;;;;;9.00;7.67;;;;;24.29;52.18;99382.47;4947753;28;102430;-56
2022/08/10 00:21:05;;;;;;;;;9.00;7.00;;;;;24.28;52.20;99384.38;4955651;28;102447;-56
2022/08/10 00:23:33;;;;;;;;;12.00;9.67;;;;;24.27;52.01;99382.72;4953795;27;102310;-57
2022/08/10 00:26:01;;;;;;;;;10.00;9.00;;;;;24.27;52.18;99376.38;4943099;28;103525;-57
2022/08/10 00:28:28;;;;;;;;;7.00;6.00;;;;;24.27;51.89;99379.16;4941532;28;104063;-56
2022/08/10 00:30:55;;;;;;;;;8.00;7.00;;;;;24.26;52.03;99380.25;4935853;28;102399;-56
2022/08/10 00:33:23;;;;;;;;;10.00;8.00;;;;;24.25;52.11;99378.56;4934852;28;102755;-56
2022/08/10 00:35:50;;;;;;;;;9.00;8.00;;;;;24.25;51.87;99373.88;4929848;27;104268;-57
2022/08/10 00:38:18;;;;;;;;;7.33;6.00;;;;;24.23;51.91;99375.25;4937508;28;103976;-57
2022/08/10 00:40:45;;;;;;;;;8.67;7.33;;;;;24.22;51.82;99388.25;4950722;28;102413;-56
2022/08/10 00:43:12;;;;;;;;;12.00;9.00;;;;;24.22;52.00;99387.41;4949032;27;102149;-56
2022/08/10 00:45:40;;;;;;;;;8.67;6.33;;;;;24.21;52.14;99383.00;4956683;27;103952;-57
2022/08/10 00:48:08;;;;;;;;;8.67;7.67;;;;;24.21;51.74;99391.28;4955169;28;102286;-58
2022/08/10 00:50:36;;;;;;;;;11.33;8.00;;;;;24.21;51.79;99385.75;4957599;28;102591;-56
2022/08/10 00:53:03;;;;;;;;;9.67;8.00;;;;;24.20;52.16;99387.69;4958827;28;103536;-56
2022/08/10 00:55:31;;;;;;;;;12.33;9.00;;;;;24.20;52.09;99386.84;4932289;28;104122;-57
2022/08/10 00:58:18;;;;;;;;;9.67;8.33;;;;;24.19;52.02;99380.47;4948411;28;102522;-56
2022/08/10 01:00:47;;;;;;;;;11.00;6.67;;;;;24.19;51.88;99382.41;4953866;27;102051;-56
2022/08/10 01:03:14;;;;;;;;;8.67;7.67;;;;;24.18;52.20;99376.06;4950257;28;102214;-57
2022/08/10 01:06:07;;;;;;;;;8.00;7.00;;;;;24.17;52.03;99376.34;4943513;27;104162;-56
2022/08/10 01:08:46;;;;;;;;;10.00;8.00;;;;;24.17;51.95;99374.41;4903051;28;102607;-57
2022/08/10 01:11:16;;;;;;;;;7.00;7.00;;;;;24.16;52.03;99375.50;4941535;28;103604;-56
2022/08/10 01:14:33;;;;;;;;;6.33;5.67;;;;;24.14;52.01;99372.13;4940080;27;103160;-57
2022/08/10 01:17:05;;;;;;;;;6.67;6.67;;;;;24.16;52.10;99377.44;4947392;28;109086;-56
2022/08/10 01:19:53;;;;;;;;;7.00;6.00;;;;;24.14;52.07;99382.34;4967626;27;102596;-58
2022/08/10 01:22:25;;;;;;;;;8.33;7.67;;;;;24.13;52.24;99380.72;4950577;28;102477;-56
2022/08/10 01:25:01;;;;;;;;;8.00;6.67;;;;;24.12;52.21;99374.34;4966579;28;102859;-56
2022/08/10 01:27:40;;;;;;;;;8.00;7.00;;;;;24.11;52.20;99378.22;4948117;28;109192;-56
2022/08/10 01:30:12;;;;;;;;;8.67;7.67;;;;;24.10;52.15;99382.06;4945589;28;102229;-56
2022/08/10 01:32:50;;;;;;;;;9.33;8.00;;;;;24.11;52.18;99371.84;4951224;28;102318;-56
2022/08/10 01:35:40;;;;;;;;;7.00;7.00;;;;;24.11;52.16;99371.84;4944462;27;102598;-56
2022/08/10 01:38:32;;;;;;;;;8.00;7.33;;;;;24.09;52.00;99374.88;4941658;28;109080;-57
2022/08/10 01:41:11;;;;;;;;;8.33;6.67;;;;;24.10;52.21;99372.94;4933551;28;102026;-56
2022/08/10 01:43:45;;;;;;;;;7.33;6.67;;;;;24.09;52.16;99379.59;4937788;28;102686;-56
2022/08/10 01:46:13;;;;;;;;;8.67;7.00;;;;;24.08;52.25;99372.41;4925658;28;102532;-56
2022/08/10 01:48:46;;;;;;;;;9.00;5.33;;;;;24.07;51.99;99376.25;4939858;27;104546;-56
2022/08/10 01:51:36;;;;;;;;;10.00;7.33;;;;;24.07;52.10;99365.22;4937591;28;102636;-56
2022/08/10 01:54:11;;;;;;;;;11.33;8.00;;;;;24.06;51.90;99367.13;4931585;28;102368;-57
2022/08/10 01:56:41;;;;;;;;;11.33;7.00;;;;;24.06;51.92;99369.06;4952961;28;102252;-56
2022/08/10 01:59:11;;;;;;;;;8.00;7.67;;;;;24.05;52.03;99361.88;4940473;28;104060;-56
2022/08/10 02:01:42;;;;;;;;;9.00;7.00;;;;;24.03;52.06;99370.44;4969047;28;102430;-57
2022/08/10 02:04:11;;;;;;;;;7.67;6.67;;;;;24.00;52.49;99359.94;4947788;28;102770;-56
2022/08/10 02:06:41;;;;;;;;;8.00;7.00;;;;;24.02;52.25;99363.25;4931521;28;102831;-56
2022/08/10 02:09:08;;;;;;;;;6.67;5.00;;;;;24.01;52.15;99362.41;4956099;28;104057;-56
2022/08/10 02:11:36;;;;;;;;;6.33;5.00;;;;;24.01;52.18;99373.47;4937140;28;103272;-57
2022/08/10 02:14:26;;;;;;;;;8.67;7.00;;;;;24.01;52.22;99373.47;4950944;28;103042;-56
2022/08/10 02:16:59;;;;;;;;;6.00;5.00;;;;;24.01;52.15;99378.16;4965742;28;102491;-56
2022/08/10 02:19:26;;;;;;;;;7.67;6.67;;;;;23.99;52.33;99374.84;4954963;28;109696;-56
2022/08/10 02:21:54;;;;;;;;;7.00;6.00;;;;;24.00;51.91;99376.53;4958852;28;102149;-57
2022/08/10 02:24:41;;;;;;;;;6.33;5.67;;;;;23.99;52.13;99381.22;4953390;27;102466;-57
2022/08/10 02:27:08;;;;;;;;;11.00;7.00;;;;;23.99;51.94;99383.16;4941997;28;102216;-56
2022/08/10 02:29:36;;;;;;;;;7.67;7.00;;;;;23.98;52.11;99393.38;4950262;28;104045;-57
2022/08/10 02:32:08;;;;;;;;;8.67;8.00;;;;;23.99;51.99;99391.44;4961255;28;102337;-57
2022/08/10 02:34:36;;;;;;;;;7.33;6.33;;;;;23.98;52.27;99387.00;4952691;28;102488;-56
2022/08/10 02:37:04;;;;;;;;;7.00;6.00;;;;;23.98;52.01;99389.75;4932709;28;102278;-56
2022/08/10 02:39:36;;;;;;;;;5.33;4.67;;;;;23.96;52.20;99392.78;4955661;28;105611;-56
2022/08/10 02:42:20;;;;;;;;;7.00;6.00;;;;;23.95;52.07;99387.53;4952187;28;102310;-57
2022/08/10 02:45:12;;;;;;;;;7.00;6.00;;;;;23.94;52.26;99391.41;4938628;28;103230;-56
2022/08/10 02:48:02;;;;;;;;;7.33;5.33;;;;;23.93;52.17;99393.34;4940044;28;102531;-56
2022/08/10 02:50:32;;;;;;;;;5.33;5.00;;;;;23.91;52.26;99403.81;4940033;28;109044;-56
2022/08/10 02:53:01;;;;;;;;;6.00;6.00;;;;;23.90;52.20;99404.94;4950883;28;102399;-56
2022/08/10 02:55:37;;;;;;;;;8.00;7.00;;;;;23.90;52.25;99399.41;4951506;28;102275;-56
2022/08/10 02:58:09;;;;;;;;;9.33;6.67;;;;;23.90;51.96;99398.56;4961239;28;102356;-56
2022/08/10 03:00:46;;;;;;;;;5.00;5.00;;;;;23.89;52.37;99403.25;4952910;28;104101;-56
2022/08/10 03:03:19;;;;;;;;;7.33;5.00;;;;;23.88;52.22;99404.34;4945205;28;102577;-56
2022/08/10 03:05:48;;;;;;;;;7.67;6.00;;;;;23.88;52.05;99401.59;4951138;28;102616;-56
2022/08/10 03:08:18;;;;;;;;;9.00;7.00;;;;;23.88;52.31;99401.59;4973908;28;102201;-56
2022/08/10 03:10:45;;;;;;;;;5.33;5.33;;;;;23.87;52.35;99404.59;4959416;28;104207;-56
2022/08/10 03:13:12;;;;;;;;;6.33;5.33;;;;;23.87;52.28;99405.44;4947765;28;102319;-56
2022/08/10 03:15:39;;;;;;;;;6.00;5.67;;;;;23.87;51.94;99404.59;4964598;28;102697;-56
2022/08/10 03:18:06;;;;;;;;;5.67;4.00;;;;;23.86;52.21;99409.34;4928287;28;102603;-56
2022/08/10 03:20:38;;;;;;;;;5.67;4.67;;;;;23.83;52.31;99409.84;4946743;28;104144;-56
2022/08/10 03:23:14;;;;;;;;;5.00;4.00;;;;;23.83;52.11;99411.78;4938657;28;102185;-56
2022/08/10 03:25:45;;;;;;;;;7.33;6.00;;;;;23.82;52.18;99410.13;4956933;28;102587;-56
2022/08/10 03:28:27;;;;;;;;;7.00;5.00;;;;;23.81;52.26;99406.53;4958293;28;103044;-56
2022/08/10 03:30:54;;;;;;;;;6.00;5.67;;;;;23.80;52.26;99418.69;4943014;28;103512;-56
2022/08/10 03:33:22;;;;;;;;;6.00;4.33;;;;;23.81;52.25;99422.28;4945105;28;103755;-56
2022/08/10 03:35:50;;;;;;;;;5.33;5.00;;;;;23.80;52.24;99420.59;4941861;28;102352;-56
2022/08/10 03:38:39;;;;;;;;;9.67;7.33;;;;;23.80;52.36;99420.59;4955332;28;102758;-56
2022/08/10 03:41:08;;;;;;;;;8.00;6.00;;;;;23.79;52.31;99424.47;4942507;28;104036;-56
2022/08/10 03:43:35;;;;;;;;;5.33;5.00;;;;;23.78;52.41;99423.63;4950450;28;102273;-56
2022/08/10 03:46:05;;;;;;;;;7.67;5.00;;;;;23.77;52.24;99421.16;4942343;28;102211;-57
2022/08/10 03:48:32;;;;;;;;;4.33;4.33;;;;;23.75;52.31;99424.16;4949325;28;102598;-58
2022/08/10 03:51:16;;;;;;;;;6.00;6.00;;;;;23.75;52.27;99431.63;4956839;28;104108;-56
2022/08/10 03:53:43;;;;;;;;;6.00;5.00;;;;;23.73;52.10;99426.34;4947715;28;104028;-56
2022/08/10 03:56:31;;;;;;;;;6.00;5.00;;;;;23.72;52.14;99435.75;4952345;28;102159;-56
2022/08/10 03:58:59;;;;;;;;;5.33;5.00;;;;;23.68;52.23;99429.09;4953206;28;102568;-56
2022/08/10 04:01:27;;;;;;;;;4.00;4.00;;;;;23.67;51.87;99432.97;4942042;28;104233;-56
2022/08/10 04:04:14;;;;;;;;;6.00;5.33;;;;;23.68;52.13;99428.25;4944291;28;102350;-56
2022/08/10 04:06:52;;;;;;;;;4.00;4.00;;;;;23.66;52.28;99436.81;4950389;28;102760;-57
2022/08/10 04:09:31;;;;;;;;;5.00;5.00;;;;;23.64;52.22;99430.69;4946946;28;102088;-56
2022/08/10 04:12:18;;;;;;;;;3.50;3.00;;;;;23.64;52.21;99435.41;4945963;27;110417;-56
2022/08/10 04:14:46;;;;;;;;;4.33;4.00;;;;;23.63;51.91;99437.34;4949037;27;102489;-55
2022/08/10 04:17:22;;;;;;;;;5.33;4.67;;;;;23.65;52.37;99432.38;4954050;28;102613;-56
2022/08/10 04:20:38;;;;;;;;;7.00;5.00;;;;;23.65;52.53;99431.53;4949490;28;102133;-56
2022/08/10 04:23:08;;;;;;;;;5.33;5.00;;;;;23.64;52.43;99438.19;4916812;27;109132;-58
2022/08/10 04:25:35;;;;;;;;;3.33;3.00;;;;;23.66;52.37;99439.56;4932404;28;102296;-58
2022/08/10 04:28:02;;;;;;;;;5.67;5.67;;;;;23.66;52.30;99438.72;4941441;28;102804;-57
2022/08/10 04:30:30;;;;;;;;;5.00;4.00;;;;;23.67;52.27;99445.94;4959466;28;102493;-58
2022/08/10 04:32:58;;;;;;;;;5.00;5.00;;;;;23.67;52.36;99437.66;4947712;28;109384;-58
2022/08/10 04:35:25;;;;;;;;;5.67;4.00;;;;;23.67;52.23;99451.44;4936911;28;102410;-58
2022/08/10 04:37:52;;;;;;;;;4.67;4.33;;;;;23.63;52.47;99442.88;4952857;28;102347;-58
2022/08/10 04:40:20;;;;;;;;;5.00;5.00;;;;;23.63;52.32;99451.16;4955900;28;102242;-57
2022/08/10 04:43:00;;;;;;;;;5.33;5.00;;;;;23.62;52.28;99451.41;4953104;28;104111;-57
2022/08/10 04:45:37;;;;;;;;;5.00;4.67;;;;;23.61;52.34;99456.09;4934376;28;102566;-57
2022/08/10 04:48:23;;;;;;;;;6.00;5.00;;;;;23.61;52.32;99447.81;4952001;28;102523;-58
2022/08/10 04:51:15;;;;;;;;;6.67;5.00;;;;;23.61;52.38;99444.22;4950524;28;102260;-58
2022/08/10 04:53:45;;;;;;;;;4.00;4.00;;;;;23.59;52.63;99447.25;4951969;28;104211;-57
2022/08/10 04:56:33;;;;;;;;;6.00;6.00;;;;;23.59;52.60;99447.25;4935590;28;105598;-58
2022/08/10 04:59:00;;;;;;;;;3.33;2.33;;;;;23.61;52.52;99449.75;4938709;28;102377;-58
2022/08/10 05:01:28;;;;;;;;;5.67;4.00;;;;;23.61;52.28;99450.56;4950261;28;103487;-57
2022/08/10 05:04:16;;;;;;;;;5.00;4.00;;;;;23.59;52.53;99447.25;4938489;28;109934;-58
2022/08/10 05:07:10;;;;;;;;;4.67;4.33;;;;;23.59;52.47;99461.06;4954098;28;102123;-58
2022/08/10 05:09:48;;;;;;;;;4.67;4.00;;;;;23.58;52.37;99455.81;4949146;28;102015;-57
2022/08/10 05:12:35;;;;;;;;;4.00;3.00;;;;;23.55;52.36;99457.16;4941057;28;102321;-58
2022/08/10 05:15:05;;;;;;;;;5.33;5.00;;;;;23.57;52.22;99460.50;4945827;28;109018;-58
2022/08/10 05:17:34;;;;;;;;;4.33;3.33;;;;;23.57;52.20;99466.00;4944976;28;102437;-59
2022/08/10 05:31:11;;;;;;;;;5.00;4.00;;;;;23.55;52.00;99460.75;4985533;23;104128;-80
2022/08/10 05:33:49;;;;;;;;;5.00;4.00;;;;;23.57;51.90;99457.72;4901271;28;102585;-80
2022/08/10 05:36:16;;;;;;;;;4.33;4.00;;;;;23.54;51.75;99453.59;4904740;28;104076;-80
2022/08/10 05:38:44;;;;;;;;;5.00;4.33;;;;;23.57;51.77;99454.97;4913804;28;102847;-79
2022/08/10 05:41:11;;;;;;;;;4.67;3.67;;;;;23.59;51.81;99458.31;4918863;28;102674;-79
2022/08/10 05:43:39;;;;;;;;;7.00;5.00;;;;;23.61;51.85;99471.81;4907637;28;102374;-79
2022/08/10 05:46:06;;;;;;;;;4.33;4.00;;;;;23.61;51.66;99464.38;4927433;28;104235;-80
2022/08/10 05:48:47;;;;;;;;;3.67;3.00;;;;;23.61;52.20;99466.31;4905837;28;102211;-81
2022/08/10 05:51:26;;;;;;;;;4.00;3.00;;;;;23.61;51.71;99469.06;4921736;28;102686;-81
2022/08/10 05:53:53;;;;;;;;;4.00;4.00;;;;;23.57;51.86;99471.53;4866684;28;103449;-79
2022/08/10 05:56:30;;;;;;;;;4.00;4.00;;;;;23.56;51.57;99469.84;4892020;28;108775;-81
2022/08/10 05:59:18;;;;;;;;;5.33;5.00;;;;;23.59;51.75;99472.13;4905014;28;102307;-80
2022/08/10 06:02:05;;;;;;;;;4.00;4.00;;;;;23.59;51.67;99468.53;4893260;28;102523;-80
2022/08/10 06:04:53;;;;;;;;;5.00;4.00;;;;;23.56;51.74;99459.66;4916186;28;103543;-80
2022/08/10 06:07:20;;;;;;;;;3.67;3.00;;;;;23.59;51.46;99474.88;4909294;28;103081;-80
2022/08/10 06:09:47;;;;;;;;;3.00;3.00;;;;;23.60;51.45;99465.47;4933861;28;102427;-80
2022/08/10 06:12:27;;;;;;;;;6.67;3.67;;;;;23.63;51.54;99470.47;4902952;28;102506;-80
2022/08/10 06:15:14;;;;;;;;;4.67;3.00;;;;;23.66;51.37;99474.63;4905662;28;103193;-80
2022/08/10 06:18:02;;;;;;;;;4.67;3.00;;;;;23.66;51.13;99475.47;4882197;28;110814;-80
2022/08/10 06:20:30;;;;;;;;;4.67;4.00;;;;;23.66;51.33;99469.94;4904851;28;102336;-80
2022/08/10 06:23:02;;;;;;;;;4.00;2.67;;;;;23.65;51.04;99465.50;4917823;28;102684;-80
2022/08/10 06:25:30;;;;;;;;;4.67;3.33;;;;;23.65;51.31;99471.03;4903289;28;102405;-80
2022/08/10 06:28:17;;;;;;;;;3.00;3.00;;;;;23.67;51.22;99473.53;4921155;28;109827;-80
2022/08/10 06:30:44;;;;;;;;;4.00;3.00;;;;;23.67;51.13;99481.81;4914969;28;103964;-80
2022/08/10 06:33:12;;;;;;;;;3.00;3.00;;;;;23.65;51.12;99473.78;4884004;28;102492;-80
2022/08/10 06:35:39;;;;;;;;;3.00;2.00;;;;;23.67;51.30;99477.13;4893529;28;102472;-80
2022/08/10 06:38:06;;;;;;;;;2.00;2.00;;;;;23.70;51.27;99487.66;4901972;28;104617;-80
2022/08/10 06:56:40;;;;;;;;;4.00;2.00;;;;;23.74;51.04;99466.69;4748750;26;103172;-80
2022/08/10 06:59:38;;;;;;;;;3.33;3.33;;;;;23.77;50.77;99462.56;4896164;28;112952;-80
2022/08/10 07:02:11;;;;;;;;;4.67;4.67;;;;;23.78;50.98;99465.06;4879591;28;102719;-80
2022/08/10 07:05:06;;;;;;;;;3.33;3.00;;;;;23.79;51.18;99468.66;4892271;28;103321;-80
2022/08/10 07:07:35;;;;;;;;;4.00;3.00;;;;;23.80;51.04;99460.09;4911132;28;102760;-80
2022/08/10 07:10:03;;;;;;;;;4.00;4.00;;;;;23.81;50.76;99460.94;4921840;28;105672;-80
2022/08/10 07:12:30;;;;;;;;;3.00;3.00;;;;;23.82;50.86;99462.63;4880558;28;102121;-80
2022/08/10 07:14:58;;;;;;;;;4.00;2.67;;;;;23.85;50.48;99468.44;4885171;28;105405;-80
2022/08/10 07:17:25;;;;;;;;;5.00;2.00;;;;;23.86;50.71;99464.56;4814949;28;102590;-80
2022/08/10 07:19:57;;;;;;;;;2.67;2.33;;;;;23.84;50.60;99461.22;4923023;28;104205;-80
2022/08/10 07:22:27;;;;;;;;;4.00;3.00;;;;;23.85;50.88;99467.59;4879607;28;102187;-80
2022/08/10 07:25:15;;;;;;;;;2.33;2.33;;;;;23.83;50.60;99456.81;4911340;28;102581;-80
2022/08/10 07:27:43;;;;;;;;;3.00;3.00;;;;;23.86;50.92;99470.09;4911980;28;109123;-80
2022/08/10 07:30:27;;;;;;;;;3.00;3.00;;;;;23.84;50.89;99465.94;4891923;28;105497;-79
2022/08/10 07:32:54;;;;;;;;;3.00;3.00;;;;;23.81;50.77;99461.78;4899378;28;102188;-80
2022/08/10 07:35:21;;;;;;;;;4.00;2.67;;;;;23.84;50.42;99465.94;4911088;28;102207;-80
2022/08/10 07:37:50;;;;;;;;;3.00;2.00;;;;;23.82;50.91;99468.13;4813982;28;102334;-80
2022/08/10 07:40:20;;;;;;;;;2.00;2.00;;;;;23.84;50.80;99466.75;4891201;28;105834;-80
2022/08/10 07:42:51;;;;;;;;;3.33;3.00;;;;;23.82;50.60;99457.88;4878589;28;102294;-80
2022/08/10 07:45:27;;;;;;;;;2.00;2.00;;;;;23.84;50.86;99465.94;4872117;28;104426;-80
2022/08/10 07:47:57;;;;;;;;;2.00;2.00;;;;;23.84;50.69;99457.63;4896488;28;102253;-80
2022/08/10 07:50:30;;;;;;;;;3.00;3.00;;;;;23.84;50.93;99469.53;4874584;28;108275;-80
2022/08/10 07:53:02;;;;;;;;;3.00;2.00;;;;;23.83;50.96;99459.56;4868383;28;102134;-80
2022/08/10 07:55:30;;;;;;;;;1.00;1.00;;;;;23.83;50.91;99455.97;4862042;28;103394;-80
2022/08/10 07:58:18;;;;;;;;;3.00;3.00;;;;;23.82;50.87;99454.31;4858350;28;102684;-80
2022/08/10 08:00:45;;;;;;;;;2.00;2.00;;;;;23.82;50.75;99460.66;4859645;28;105608;-80
2022/08/10 08:03:13;;;;;;;;;3.00;3.00;;;;;23.85;50.75;99465.66;4849805;28;102208;-80
2022/08/10 08:05:41;;;;;;;;;4.33;3.00;;;;;23.84;50.93;99463.16;4864725;28;102275;-80
2022/08/10 08:08:28;;;;;;;;;2.33;2.00;;;;;23.84;50.83;99460.41;4897863;28;103182;-80
2022/08/10 08:10:56;;;;;;;;;3.00;2.00;;;;;23.86;51.03;99458.22;4906611;28;103150;-80
2022/08/10 08:13:30;;;;;;;;;2.00;2.00;;;;;23.87;50.94;99455.16;4866273;28;103697;-80
2022/08/10 08:15:59;;;;;;;;;2.00;2.00;;;;;23.86;50.91;99452.69;4856038;28;102285;-80
2022/08/10 08:18:46;;;;;;;;;2.00;2.00;;;;;23.85;50.77;99446.34;4887125;28;102348;-80
2022/08/10 08:21:34;;;;;;;;;2.00;2.00;;;;;23.84;50.59;99447.44;4864723;28;110502;-80
2022/08/10 08:24:21;;;;;;;;;3.33;2.33;;;;;23.86;50.45;99453.53;4890383;28;102386;-80
2022/08/10 08:26:59;;;;;;;;;2.00;2.00;;;;;23.84;50.69;99447.44;4874192;28;102195;-80
2022/08/10 08:29:26;;;;;;;;;2.00;2.00;;;;;23.87;50.86;99455.16;4848950;28;102629;-80
2022/08/10 08:31:53;;;;;;;;;3.00;2.33;;;;;23.88;50.97;99445.78;4891080;28;103331;-80
2022/08/10 08:34:31;;;;;;;;;2.00;2.00;;;;;23.85;50.66;99449.09;4873992;28;102353;-79
2022/08/10 08:36:59;;;;;;;;;3.00;3.00;;;;;23.85;50.79;99440.81;4887939;28;102721;-79
2022/08/10 08:39:27;;;;;;;;;1.67;1.67;;;;;23.90;50.79;99445.53;4836843;28;102530;-79
2022/08/10 08:42:17;;;;;;;;;2.67;2.67;;;;;23.88;50.68;99440.25;4847568;28;103428;-79
2022/08/10 08:45:12;;;;;;;;;2.00;2.00;;;;;23.93;50.77;99445.81;4839037;28;102211;-79
2022/08/10 08:47:54;;;;;;;;;2.67;2.00;;;;;23.89;50.36;99430.06;4871309;28;102295;-79
2022/08/10 08:50:50;;;;;;;;;2.00;2.00;;;;;23.94;50.73;99439.22;4860953;28;102220;-79
2022/08/10 08:53:42;;;;;;;;;2.00;2.00;;;;;23.94;50.64;99435.59;4865682;28;107811;-79
2022/08/10 08:56:44;;;;;;;;;2.00;2.00;;;;;23.94;50.71;99433.69;4866645;28;102337;-79
2022/08/10 08:59:41;;;;;;;;;3.00;2.00;;;;;23.96;50.71;99434.22;4881080;28;102450;-78
2022/08/10 09:02:17;;;;;;;;;2.00;2.00;;;;;23.94;50.76;99450.25;4890969;28;102263;-79
2022/08/10 09:05:03;;;;;;;;;3.00;3.00;;;;;23.95;50.79;99443.63;4889272;28;104137;-79
2022/08/10 09:07:42;;;;;;;;;3.00;1.33;;;;;23.96;50.83;99448.03;4874975;28;102221;-80
2022/08/10 09:10:50;;;;;;;;;2.00;2.00;;;;;23.92;50.86;99441.38;4889403;28;102544;-80
2022/08/10 09:13:25;;;;;;;;;1.33;1.33;;;;;23.98;50.56;99448.63;4898700;28;102312;-79
2022/08/10 09:16:09;;;;;;;;;2.00;2.00;;;;;23.94;50.63;99447.50;4877582;28;105312;-79
2022/08/10 09:18:48;;;;;;;;;3.00;2.33;;;;;23.95;50.48;99440.88;4884508;28;102420;-80
2022/08/10 09:21:20;;;;;;;;;2.67;2.00;;;;;23.94;50.68;99438.38;4815514;28;102604;-79
2022/08/10 09:24:00;;;;;;;;;2.00;2.00;;;;;23.94;50.72;99430.91;4863989;28;102316;-80
2022/08/10 09:26:44;;;;;;;;;3.00;2.33;;;;;23.96;50.83;99442.50;4873949;28;107688;-80
2022/08/10 09:29:26;;;;;;;;;1.00;1.00;;;;;23.97;50.66;99443.34;4887123;28;103772;-80
2022/08/10 09:32:07;;;;;;;;;2.00;2.00;;;;;23.97;50.58;99430.38;4860210;28;102639;-80
2022/08/10 09:35:27;;;;;;;;;2.00;2.00;;;;;24.02;50.67;99437.84;4873241;28;103358;-80
2022/08/10 09:38:42;;;;;;;;;2.67;1.67;;;;;23.98;50.30;99429.28;4876033;28;110043;-80
2022/08/10 09:41:32;;;;;;;;;2.00;2.00;;;;;24.00;50.63;99432.59;4867196;28;103686;-79
2022/08/10 09:44:12;;;;;;;;;2.00;1.67;;;;;23.99;50.48;99430.94;4888118;28;102130;-79
2022/08/10 09:47:01;;;;;;;;;3.00;3.00;;;;;23.99;50.62;99425.44;4876285;28;102612;-79
2022/08/10 09:49:34;;;;;;;;;2.67;2.00;;;;;23.98;50.50;99423.75;4860999;28;108919;-79
2022/08/10 09:52:27;;;;;;;;;1.00;1.00;;;;;24.04;50.31;99435.66;4874424;28;102452;-79
2022/08/10 09:55:20;;;;;;;;;2.33;2.33;;;;;24.04;50.57;99432.06;4883872;28;103279;-79
2022/08/10 09:58:31;;;;;;;;;2.00;2.00;;;;;24.04;50.71;99421.84;4834462;28;102652;-80
2022/08/10 10:01:24;;;;;;;;;2.67;2.00;;;;;24.04;50.34;99416.31;4889465;28;111059;-80
2022/08/10 10:04:25;;;;;;;;;4.67;3.00;;;;;24.03;50.37;99414.66;4816465;28;102549;-80
2022/08/10 10:07:04;;;;;;;;;3.00;1.67;;;;;24.05;50.32;99417.97;4869927;28;102496;-80
2022/08/10 10:09:31;;;;;;;;;2.00;2.00;;;;;24.07;50.49;99412.19;4833928;28;102591;-80
2022/08/10 10:12:14;;;;;;;;;1.33;1.33;;;;;24.01;50.57;99401.09;4879208;28;107942;-80
2022/08/10 10:15:20;;;;;;;;;1.00;1.00;;;;;24.08;50.61;99408.31;4813783;28;102338;-80
2022/08/10 10:18:22;;;;;;;;;2.00;1.67;;;;;24.09;50.61;99404.47;4885332;28;102503;-80
2022/08/10 10:21:03;;;;;;;;;3.67;3.00;;;;;24.09;50.42;99398.94;4874721;28;102697;-80
2022/08/10 10:23:51;;;;;;;;;1.00;1.00;;;;;24.09;50.38;99399.75;4889683;28;108318;-80
2022/08/10 10:26:59;;;;;;;;;2.00;2.00;;;;;24.08;50.53;99398.09;4893397;28;103117;-79
2022/08/10 10:30:03;;;;;;;;;2.67;2.00;;;;;24.11;50.51;99393.97;4879296;28;102159;-79
2022/08/10 10:33:07;;;;;;;;;2.00;2.00;;;;;24.13;50.24;99386.25;4904652;28;102444;-79
2022/08/10 10:35:52;;;;;;;;;2.00;2.00;;;;;24.12;50.24;99384.56;4831769;28;109142;-80
2022/08/10 10:38:25;;;;;;;;;3.00;3.00;;;;;24.13;50.20;99386.25;4866377;28;102286;-80
2022/08/10 10:41:19;;;;;;;;;1.00;1.00;;;;;24.18;50.36;99389.06;4825716;28;102261;-80
2022/08/10 10:44:21;;;;;;;;;2.00;2.00;;;;;24.21;50.33;99388.50;4821961;28;102215;-80
2022/08/10 10:47:08;;;;;;;;;1.00;1.00;;;;;24.22;50.08;99390.19;4847076;28;109630;-80
2022/08/10 10:50:11;;;;;;;;;3.00;2.00;;;;;24.24;50.43;99376.91;4891988;28;102152;-79
2022/08/10 10:52:50;;;;;;;;;2.00;2.00;;;;;24.26;50.02;99380.25;4864789;28;103992;-79
2022/08/10 10:55:55;;;;;;;;;2.00;2.00;;;;;24.22;50.02;99360.63;4885915;28;102260;-80
2022/08/10 10:59:05;;;;;;;;;2.67;1.67;;;;;24.30;50.03;99367.53;4809216;28;109901;-80
2022/08/10 11:01:55;;;;;;;;;3.33;2.33;;;;;24.23;50.16;99356.72;4859487;28;102025;-80
2022/08/10 11:04:24;;;;;;;;;2.00;2.00;;;;;24.25;50.24;99364.75;4867634;28;103623;-80
2022/08/10 11:07:12;;;;;;;;;2.00;1.67;;;;;24.24;50.07;99354.78;4831569;28;102176;-80
2022/08/10 11:10:07;;;;;;;;;3.33;2.67;;;;;24.22;50.03;99352.31;4808520;28;109513;-80
2022/08/10 11:13:24;;;;;;;;;2.67;2.00;;;;;24.26;50.23;99370.03;4882547;28;102191;-79
2022/08/10 11:16:50;;;;;;;;;2.33;2.00;;;;;24.30;50.29;99375.84;4877326;28;102608;-80
2022/08/10 11:19:52;;;;;;;;;1.00;1.00;;;;;24.29;50.16;99363.94;4893038;28;102144;-80
2022/08/10 11:22:47;;;;;;;;;0.67;0.33;;;;;24.27;50.12;99365.34;4891324;28;109756;-80
2022/08/10 11:25:30;;;;;;;;;1.33;1.33;;;;;24.30;50.27;99359.25;4888310;28;102181;-80
2022/08/10 11:28:17;;;;;;;;;2.33;2.33;;;;;24.32;49.98;99359.78;4875301;28;102345;-80
2022/08/10 11:31:12;;;;;;;;;1.33;1.00;;;;;24.28;50.09;99362.28;4907238;28;102740;-79
2022/08/10 11:33:46;;;;;;;;;1.67;1.67;;;;;24.31;49.89;99375.56;4882960;28;111071;-80
2022/08/10 11:36:40;;;;;;;;;1.33;1.33;;;;;24.29;50.23;99365.88;4812745;28;102427;-79
2022/08/10 11:39:15;;;;;;;;;2.00;2.00;;;;;24.32;50.02;99362.56;4855374;28;102455;-80
2022/08/10 11:41:50;;;;;;;;;2.67;1.67;;;;;24.32;50.17;99362.56;4861375;28;102461;-79
2022/08/10 11:45:11;;;;;;;;;2.00;1.00;;;;;24.31;50.19;99355.38;4805040;28;110518;-79
2022/08/10 11:47:41;;;;;;;;;2.00;1.00;;;;;24.31;50.03;99349.88;4874429;28;102226;-79
2022/08/10 11:50:24;;;;;;;;;2.00;2.00;;;;;24.32;49.97;99355.09;4872747;28;102487;-79
2022/08/10 11:53:15;;;;;;;;;2.00;1.00;;;;;24.33;50.19;99350.41;4845418;28;102623;-79
2022/08/10 11:55:44;;;;;;;;;1.00;1.00;;;;;24.30;49.90;99342.66;4873628;28;108838;-79
2022/08/10 12:01:01;;;;;;;;;1.00;1.00;;;;;24.38;50.10;99361.47;4890551;28;102365;-79
2022/08/10 12:03:30;;;;;;;;;2.00;2.00;;;;;24.36;49.93;99349.88;4862848;28;102523;-79
2022/08/10 12:06:00;;;;;;;;;2.00;1.00;;;;;24.38;49.84;99355.94;4889642;28;108972;-79
2022/08/10 12:08:27;;;;;;;;;1.33;1.00;;;;;24.39;49.89;99354.84;4873523;28;102297;-79
2022/08/10 12:11:16;;;;;;;;;1.33;1.33;;;;;24.40;50.07;99342.69;4865688;28;102484;-79
2022/08/10 12:14:14;;;;;;;;;2.00;2.00;;;;;24.40;49.95;99345.47;4902430;28;102530;-79
2022/08/10 12:16:59;;;;;;;;;2.00;2.00;;;;;24.42;49.93;99348.78;4880436;28;108847;-79
2022/08/10 12:19:57;;;;;;;;;1.67;1.67;;;;;24.46;50.08;99344.34;4888501;28;102244;-80
2022/08/10 12:22:35;;;;;;;;;0.67;0.67;;;;;24.43;49.99;99336.63;4888623;28;102367;-80
2022/08/10 12:25:06;;;;;;;;;2.00;1.33;;;;;24.43;49.93;99333.84;4849495;28;102510;-80
2022/08/10 12:27:52;;;;;;;;;1.00;1.00;;;;;24.47;49.96;99332.19;4907189;28;108897;-79
2022/08/10 12:30:32;;;;;;;;;1.00;0.33;;;;;24.46;49.74;99336.06;4853789;28;102240;-79
2022/08/10 12:33:04;;;;;;;;;1.00;1.00;;;;;24.46;49.94;99313.94;4853571;28;102281;-80
2022/08/10 12:36:02;;;;;;;;;2.00;1.00;;;;;24.53;49.84;99320.03;4832570;28;102226;-79
2022/08/10 12:39:03;;;;;;;;;1.00;1.00;;;;;24.52;49.90;99318.38;4895232;28;108515;-80
2022/08/10 12:41:38;;;;;;;;;2.00;1.00;;;;;24.52;49.87;99296.25;4886841;28;102198;-79
2022/08/10 12:44:46;;;;;;;;;1.00;1.00;;;;;24.57;49.63;99307.31;4883939;28;102166;-79
2022/08/10 12:47:19;;;;;;;;;1.00;0.00;;;;;24.61;49.90;99311.19;4878479;28;102340;-79